Terminal Aerodrome Forecast
Issued by NWS Charleston, WV

Home | Current Version | Previous Version | Text Only | Print | Product List | Glossary On
Versions: 1 2 3 4 5 6 7 8 9 10 11 12 13 14 15 16 17 18 19 20 21
000
FTUS41 KRLX 261134
TAFPKB
TAF
KPKB 261134Z 2612/2712 16004KT P6SM BKN050
     FM261900 19006KT P6SM VCTS BKN050CB
     FM270200 20007KT P6SM TSRA BKN040CB
     FM270300 21007KT P6SM SHRA VCTS BKN040CB
     FM270400 20006KT 6SM SHRA BR VCTS BKN035CB
     FM270500 20006KT 5SM SHRA BR VCTS OVC025CB
     FM270800 20005KT 6SM SHRA BR VCTS OVC035CB
     FM270900 20005KT P6SM SHRA VCTS BKN035CB=

USA.gov is the U.S. government's official web portal to all federal, state and local government web resources and services.